Time;durP1;ratioP1;P1;durP2;ratioP2;P2;SDS_P1;SDS_P2;PMS_P1;PMS_P2;Temp;Humidity;BMP_temperature;BMP_pressure;BME280_temperature;BME280_humidity;BME280_pressure;Samples;Min_cycle;Max_cycle;Signal;HPM_P1;HPM_P2
2023/08/20 00:00:04;;;;;;;8.65;6.88;;;;;;;22.93;100.00;101717.69;5082363;28;20059;-71
2023/08/20 00:02:32;;;;;;;10.18;6.78;;;;;;;22.89;100.00;101711.03;5099981;28;20095;-72
2023/08/20 00:04:58;;;;;;;7.75;6.95;;;;;;;22.89;100.00;101720.09;5100091;28;20028;-71
2023/08/20 00:07:24;;;;;;;9.93;7.03;;;;;;;22.82;100.00;101708.50;5100280;28;20032;-71
2023/08/20 00:09:49;;;;;;;11.13;7.18;;;;;;;22.90;100.00;101718.97;5083776;28;20054;-72
2023/08/20 00:12:15;;;;;;;10.20;7.15;;;;;;;22.88;100.00;101720.31;5100336;28;20130;-71
2023/08/20 00:15:04;;;;;;;8.43;7.10;;;;;;;22.88;100.00;101723.91;5101583;28;20479;-71
2023/08/20 00:17:30;;;;;;;7.93;7.13;;;;;;;22.85;100.00;101716.19;5101946;28;20027;-72
2023/08/20 00:19:56;;;;;;;10.20;7.35;;;;;;;22.81;100.00;101717.78;5099339;28;20031;-71
2023/08/20 00:22:23;;;;;;;9.52;7.50;;;;;;;22.74;100.00;101715.25;5101772;28;20436;-72
2023/08/20 00:24:49;;;;;;;12.05;7.97;;;;;;;22.69;100.00;101717.97;5097945;28;20032;-71
2023/08/20 00:27:15;;;;;;;14.55;8.50;;;;;;;22.67;100.00;101714.63;5098938;28;20022;-72
2023/08/20 00:29:40;;;;;;;10.15;7.72;;;;;;;22.64;100.00;101698.69;5080233;28;20501;-71
2023/08/20 00:32:05;;;;;;;9.65;7.80;;;;;;;22.72;100.00;101711.13;5097412;28;20035;-72
2023/08/20 00:34:31;;;;;;;10.15;7.70;;;;;;;22.57;100.00;101686.25;5097393;28;20147;-71
2023/08/20 00:36:56;;;;;;;11.50;7.80;;;;;;;22.54;100.00;101679.38;5100857;28;20039;-71
2023/08/20 00:39:22;;;;;;;8.52;7.57;;;;;;;22.64;100.00;101700.59;5082289;28;20034;-71
2023/08/20 00:41:47;;;;;;;11.25;7.68;;;;;;;22.47;100.00;101685.06;5099317;28;20035;-71
2023/08/20 00:44:12;;;;;;;9.43;7.65;;;;;;;22.59;100.00;101709.63;5086593;28;20020;-71
2023/08/20 00:46:38;;;;;;;10.88;8.10;;;;;;;22.48;100.00;101697.72;5101670;28;20035;-72
2023/08/20 00:49:04;;;;;;;10.27;8.02;;;;;;;22.52;100.00;101698.84;5100311;28;20020;-71
2023/08/20 00:51:33;;;;;;;10.02;8.60;;;;;;;22.49;100.00;101687.56;5100912;28;20048;-71
2023/08/20 00:54:00;;;;;;;9.25;8.05;;;;;;;22.40;100.00;101684.44;5083356;28;20058;-71
2023/08/20 00:56:26;;;;;;;9.38;8.07;;;;;;;22.47;100.00;101695.22;5083006;28;20027;-72
2023/08/20 00:58:53;;;;;;;9.75;7.95;;;;;;;22.38;100.00;101691.25;5100871;28;20079;-71
2023/08/20 01:01:18;;;;;;;11.00;8.23;;;;;;;22.41;100.00;101696.22;5098919;28;20035;-71
2023/08/20 01:03:43;;;;;;;9.18;8.05;;;;;;;22.43;100.00;101694.06;5099811;28;20020;-71
2023/08/20 01:06:23;;;;;;;9.15;8.20;;;;;;;22.39;100.00;101702.00;5099700;28;20058;-71
2023/08/20 01:08:57;;;;;;;9.40;8.00;;;;;;;22.47;100.00;101704.25;5099396;28;20024;-72
2023/08/20 01:11:30;;;;;;;13.30;8.20;;;;;;;22.36;100.00;101699.75;5100883;28;20051;-71
2023/08/20 01:13:58;;;;;;;12.68;8.80;;;;;;;22.50;100.00;101716.63;5100215;28;20026;-71
2023/08/20 01:16:28;;;;;;;9.77;8.77;;;;;;;22.45;100.00;101709.19;5100482;28;20027;-71
2023/08/20 01:18:54;;;;;;;8.90;8.00;;;;;;;22.36;100.00;101680.56;5095051;28;20027;-71
2023/08/20 01:21:36;;;;;;;11.07;8.13;;;;;;;22.41;100.00;101705.28;5080239;28;20038;-71
2023/08/20 01:24:33;;;;;;;10.07;7.57;;;;;;;22.40;100.00;101698.16;5095789;28;20490;-72
2023/08/20 01:27:19;;;;;;;8.68;7.30;;;;;;;22.36;100.00;101701.69;5098170;28;20048;-71
2023/08/20 01:29:45;;;;;;;7.57;6.82;;;;;;;22.36;100.00;101699.75;5101730;28;20024;-71
2023/08/20 01:32:12;;;;;;;10.55;7.30;;;;;;;22.40;100.00;101702.81;5100545;28;20123;-74
2023/08/20 01:34:38;;;;;;;11.63;7.32;;;;;;;22.20;100.00;101668.56;5098960;28;20063;-71
2023/08/20 01:37:03;;;;;;;10.43;7.07;;;;;;;22.38;100.00;101691.25;5100279;28;20028;-70
2023/08/20 01:39:29;;;;;;;11.40;7.05;;;;;;;22.36;100.00;101687.97;5083036;28;20024;-71
2023/08/20 01:41:54;;;;;;;9.13;6.80;;;;;;;22.33;100.00;101697.53;5079370;28;20035;-71
2023/08/20 01:44:19;;;;;;;10.38;6.85;;;;;;;22.36;100.00;101691.53;5080770;28;20398;-71
2023/08/20 01:46:45;;;;;;;8.45;6.70;;;;;;;22.36;100.00;101697.00;5106327;28;20103;-70
2023/08/20 01:49:10;;;;;;;7.55;6.78;;;;;;;22.28;100.00;101681.00;5102919;28;20099;-70
2023/08/20 01:51:36;;;;;;;9.32;6.80;;;;;;;22.40;100.00;101683.63;5097974;28;20060;-71
2023/08/20 01:54:02;;;;;;;7.50;6.70;;;;;;;22.28;100.00;101670.88;5100429;28;20024;-71
2023/08/20 01:56:28;;;;;;;13.02;7.07;;;;;;;22.33;100.00;101672.84;5101046;28;20154;-71
2023/08/20 01:58:54;;;;;;;8.80;6.20;;;;;;;22.37;100.00;101687.69;5099767;28;20478;-71
2023/08/20 02:01:20;;;;;;;6.07;5.45;;;;;;;22.29;100.00;101682.69;5082320;28;20089;-71
2023/08/20 02:03:45;;;;;;;9.50;5.90;;;;;;;22.33;100.00;101674.75;5082437;28;20032;-71
2023/08/20 02:06:11;;;;;;;5.90;5.32;;;;;;;22.34;100.00;101679.16;5082563;28;20027;-71
2023/08/20 02:08:37;;;;;;;5.97;5.38;;;;;;;22.34;100.00;101663.53;5103766;28;20071;-71
2023/08/20 02:11:04;;;;;;;9.98;5.93;;;;;;;22.25;100.00;101665.91;5106166;28;20102;-71
2023/08/20 02:13:30;;;;;;;6.10;5.35;;;;;;;22.34;100.00;101668.19;5105985;28;20020;-71
2023/08/20 02:16:04;;;;;;;5.43;4.90;;;;;;;22.32;100.00;101668.47;5103510;28;20028;-72
2023/08/20 02:18:30;;;;;;;5.27;4.87;;;;;;;22.23;100.00;101654.34;5097983;28;20492;-71
2023/08/20 02:20:56;;;;;;;5.70;4.93;;;;;;;22.33;100.00;101672.03;5082764;28;20031;-72
2023/08/20 02:23:21;;;;;;;6.80;4.90;;;;;;;22.32;100.00;101662.97;5099814;28;20028;-71
2023/08/20 02:25:48;;;;;;;5.38;4.93;;;;;;;22.35;100.00;101665.19;5100499;28;20032;-71
2023/08/20 02:28:13;;;;;;;5.63;4.88;;;;;;;22.34;100.00;101668.19;5082219;28;20050;-71
2023/08/20 02:30:43;;;;;;;5.57;4.50;;;;;;;22.36;100.00;101666.84;5100783;28;20028;-72
2023/08/20 02:33:09;;;;;;;7.15;4.55;;;;;;;22.35;100.00;101669.84;5098544;28;20061;-71
2023/08/20 02:35:36;;;;;;;6.70;5.05;;;;;;;22.31;100.00;101664.03;5098559;28;20046;-72
2023/08/20 02:38:01;;;;;;;6.78;4.88;;;;;;;22.44;100.00;101677.34;5098795;28;20028;-71
2023/08/20 02:40:26;;;;;;;5.20;4.70;;;;;;;22.46;100.00;101679.84;5097966;28;20091;-71
2023/08/20 02:42:52;;;;;;;6.28;5.20;;;;;;;22.47;100.00;101674.09;5096747;28;20031;-71
2023/08/20 02:45:17;;;;;;;5.50;5.00;;;;;;;22.48;100.00;101685.88;5098589;28;20487;-71
2023/08/20 02:47:43;;;;;;;6.80;5.15;;;;;;;22.49;100.00;101687.56;5100315;28;20039;-71
2023/08/20 02:50:08;;;;;;;6.10;5.28;;;;;;;22.49;100.00;101691.13;5111286;28;20056;-73
2023/08/20 02:52:34;;;;;;;5.82;5.05;;;;;;;22.38;100.00;101674.81;5112440;28;20035;-70
2023/08/20 02:54:59;;;;;;;7.60;5.18;;;;;;;22.46;100.00;101683.41;5102205;28;20028;-71
2023/08/20 02:57:25;;;;;;;7.18;5.05;;;;;;;22.33;100.00;101659.13;5102698;28;20081;-71
2023/08/20 02:59:51;;;;;;;5.78;5.18;;;;;;;22.45;100.00;101670.78;5103171;28;20028;-71
2023/08/20 03:02:16;;;;;;;6.18;5.40;;;;;;;22.50;100.00;101684.56;5084524;28;20024;-71
2023/08/20 03:04:42;;;;;;;7.63;5.72;;;;;;;22.51;100.00;101685.38;5103030;28;20058;-71
2023/08/20 03:07:07;;;;;;;9.32;5.63;;;;;;;22.51;100.00;101691.69;5084321;28;20032;-72
2023/08/20 03:09:35;;;;;;;6.88;5.63;;;;;;;22.52;100.00;101685.13;5102212;28;20111;-71
2023/08/20 03:12:00;;;;;;;9.88;6.20;;;;;;;22.49;100.00;101680.16;5102409;28;20051;-73
2023/08/20 03:14:26;;;;;;;7.07;5.20;;;;;;;22.48;100.00;101672.16;5101551;28;20032;-71
2023/08/20 03:16:51;;;;;;;7.75;5.75;;;;;;;22.36;100.00;101657.81;5082629;28;20038;-71
2023/08/20 03:19:17;;;;;;;6.15;5.07;;;;;;;22.45;100.00;101676.28;5084051;28;20437;-71
2023/08/20 03:21:43;;;;;;;6.95;5.40;;;;;;;22.36;100.00;101655.88;5103569;28;20028;-72
2023/08/20 03:24:08;;;;;;;7.45;5.40;;;;;;;22.41;100.00;101675.13;5102834;28;20471;-72
2023/08/20 03:26:34;;;;;;;6.80;5.32;;;;;;;22.31;100.00;101658.56;5103024;28;20053;-71
2023/08/20 03:28:59;;;;;;;8.82;5.72;;;;;;;22.33;100.00;101664.63;5100843;28;20063;-71
2023/08/20 03:31:25;;;;;;;6.57;5.70;;;;;;;22.35;100.00;101670.69;5083829;28;20093;-71
2023/08/20 03:33:50;;;;;;;7.88;5.38;;;;;;;22.40;100.00;101676.22;5100143;28;20024;-71
2023/08/20 03:36:16;;;;;;;8.63;5.75;;;;;;;22.39;100.00;101687.44;5101693;28;20035;-71
2023/08/20 03:38:42;;;;;;;9.38;5.28;;;;;;;22.26;100.00;101658.50;5099449;28;20039;-71
2023/08/20 03:41:07;;;;;;;8.85;5.35;;;;;;;22.39;100.00;101677.31;5099467;28;20035;-71
2023/08/20 03:43:33;;;;;;;6.25;5.32;;;;;;;22.30;100.00;101667.88;5101406;28;20024;-71
2023/08/20 03:45:58;;;;;;;9.93;5.50;;;;;;;22.32;100.00;101676.69;5100783;28;20028;-71
2023/08/20 03:48:23;;;;;;;11.38;5.25;;;;;;;22.13;100.00;101645.16;5100222;28;20028;-71
2023/08/20 03:50:49;;;;;;;6.80;4.88;;;;;;;22.34;100.00;101679.97;5101061;28;20044;-70
2023/08/20 03:53:15;;;;;;;11.13;5.72;;;;;;;22.25;100.00;101667.78;5099761;28;20024;-71
2023/08/20 03:55:40;;;;;;;8.15;5.50;;;;;;;22.30;100.00;101684.31;5111434;28;20047;-71
2023/08/20 03:58:06;;;;;;;6.68;5.30;;;;;;;22.27;100.00;101688.41;5102794;28;20387;-71
2023/08/20 04:00:32;;;;;;;8.23;5.55;;;;;;;22.27;100.00;101684.84;5100645;28;20043;-71
2023/08/20 04:02:57;;;;;;;6.88;5.05;;;;;;;22.20;100.00;101671.31;5101210;28;20047;-72
2023/08/20 04:05:22;;;;;;;5.97;4.93;;;;;;;22.25;100.00;101690.59;5066128;28;20111;-72
2023/08/20 04:07:48;;;;;;;11.10;5.45;;;;;;;22.28;100.00;101689.22;5083205;28;20081;-71
2023/08/20 04:10:13;;;;;;;5.97;5.35;;;;;;;22.29;100.00;101688.16;5100889;28;20114;-71
2023/08/20 04:12:39;;;;;;;6.03;4.85;;;;;;;22.24;100.00;101690.81;5100383;28;20063;-71
2023/08/20 04:15:05;;;;;;;6.40;5.22;;;;;;;22.10;100.00;101673.91;5099945;28;20024;-74
2023/08/20 04:17:30;;;;;;;7.57;5.05;;;;;;;22.21;100.00;101691.34;5099641;28;20039;-71
2023/08/20 04:19:55;;;;;;;6.97;4.95;;;;;;;22.20;100.00;101684.19;5099184;28;20034;-71
2023/08/20 04:22:21;;;;;;;7.70;5.18;;;;;;;22.24;100.00;101694.38;5082759;28;20024;-72
2023/08/20 04:24:46;;;;;;;8.23;5.32;;;;;;;22.24;100.00;101688.91;5082933;28;20035;-71
2023/08/20 04:27:12;;;;;;;7.85;5.10;;;;;;;22.23;100.00;101690.00;5098341;28;20047;-71
2023/08/20 04:29:37;;;;;;;7.85;5.32;;;;;;;22.26;100.00;101702.38;5096445;28;20032;-71
2023/08/20 04:32:03;;;;;;;8.75;4.97;;;;;;;22.25;100.00;101696.06;5080507;28;20114;-71
2023/08/20 04:34:28;;;;;;;11.13;5.47;;;;;;;22.26;100.00;101699.63;5080596;28;20123;-71
2023/08/20 04:36:54;;;;;;;9.88;5.40;;;;;;;22.02;100.00;101672.44;5100075;28;20036;-71
2023/08/20 04:39:22;;;;;;;5.90;5.10;;;;;;;22.12;100.00;101692.81;5097988;28;20036;-71
2023/08/20 04:41:47;;;;;;;6.47;5.20;;;;;;;22.20;100.00;101703.41;5098477;28;20052;-72
2023/08/20 04:44:13;;;;;;;8.68;5.28;;;;;;;22.23;100.00;101711.94;5080351;28;20367;-71
2023/08/20 04:46:38;;;;;;;7.13;5.10;;;;;;;22.18;100.00;101698.16;5097619;28;20479;-71
2023/08/20 04:49:05;;;;;;;9.05;4.80;;;;;;;22.21;100.00;101697.66;5097390;28;20092;-71
2023/08/20 04:51:31;;;;;;;10.18;4.97;;;;;;;22.21;100.00;101702.31;5098283;28;20047;-71
2023/08/20 04:53:56;;;;;;;8.13;4.70;;;;;;;22.23;100.00;101705.63;5098514;28;20533;-71
2023/08/20 04:56:21;;;;;;;6.57;4.90;;;;;;;22.24;100.00;101708.09;5097841;28;20115;-71
2023/08/20 04:58:47;;;;;;;7.68;4.85;;;;;;;22.28;100.00;101712.00;5098332;28;20386;-70
2023/08/20 05:01:12;;;;;;;8.63;5.20;;;;;;;22.19;100.00;101694.34;5107051;28;20016;-71
2023/08/20 05:03:38;;;;;;;9.20;5.32;;;;;;;22.26;100.00;101708.69;5110225;28;20042;-71
2023/08/20 05:06:04;;;;;;;8.32;5.30;;;;;;;22.19;100.00;101716.28;5098360;28;20410;-71
2023/08/20 05:08:29;;;;;;;7.82;5.47;;;;;;;22.16;100.00;101711.31;5080808;28;20051;-72
2023/08/20 05:10:55;;;;;;;6.35;5.50;;;;;;;22.20;100.00;101712.44;5095696;28;20066;-73
2023/08/20 05:13:20;;;;;;;11.40;6.55;;;;;;;22.20;100.00;101719.84;5065028;28;20499;-71
2023/08/20 05:15:46;;;;;;;9.52;6.30;;;;;;;22.19;100.00;101724.50;5099610;28;20046;-71
2023/08/20 05:18:11;;;;;;;10.70;6.40;;;;;;;22.19;100.00;101729.97;5099686;28;20529;-71
2023/08/20 05:20:37;;;;;;;10.82;5.97;;;;;;;22.17;100.00;101726.66;5098309;28;20094;-71
2023/08/20 05:23:03;;;;;;;12.82;6.93;;;;;;;22.14;100.00;101724.38;5064736;28;20095;-71
2023/08/20 05:25:29;;;;;;;10.65;7.55;;;;;;;22.15;100.00;101708.75;5099700;28;20050;-71
2023/08/20 05:27:54;;;;;;;13.30;7.55;;;;;;;22.17;100.00;101720.34;5080365;28;20459;-71
2023/08/20 05:30:20;;;;;;;17.30;8.10;;;;;;;22.14;100.00;101713.41;5097009;28;20046;-71
2023/08/20 05:32:45;;;;;;;22.13;9.10;;;;;;;22.22;100.00;101720.44;5080506;28;20039;-70
2023/08/20 05:35:10;;;;;;;13.07;8.00;;;;;;;22.25;100.00;101719.88;5098032;28;20028;-71
2023/08/20 05:37:36;;;;;;;16.10;8.40;;;;;;;22.24;100.00;101712.75;5080783;28;20126;-72
2023/08/20 05:40:02;;;;;;;16.67;8.60;;;;;;;22.30;100.00;101711.75;5098778;28;20387;-71
2023/08/20 05:42:27;;;;;;;15.02;8.65;;;;;;;22.26;100.00;101716.09;5097764;28;20032;-71
2023/08/20 05:44:53;;;;;;;19.95;9.23;;;;;;;22.23;100.00;101700.97;5080889;28;20042;-72
2023/08/20 05:47:18;;;;;;;18.58;10.00;;;;;;;22.35;100.00;101705.47;5080995;28;20024;-72
2023/08/20 05:49:44;;;;;;;17.88;9.57;;;;;;;22.40;100.00;101703.63;5096461;28;20594;-71
2023/08/20 05:52:09;;;;;;;22.30;10.63;;;;;;;22.41;100.00;101691.56;5098447;28;20047;-71
2023/08/20 05:54:35;;;;;;;24.90;10.85;;;;;;;22.32;100.00;101684.91;5097566;28;20023;-71
2023/08/20 05:57:01;;;;;;;23.05;11.30;;;;;;;22.42;100.00;101689.69;5097354;28;20106;-71
2023/08/20 05:59:27;;;;;;;21.13;10.93;;;;;;;22.37;100.00;101695.09;5097292;28;20028;-71
2023/08/20 06:01:54;;;;;;;24.42;12.40;;;;;;;22.30;100.00;101688.97;5097132;28;20058;-71
2023/08/20 06:04:19;;;;;;;25.00;11.93;;;;;;;22.36;100.00;101699.75;5097407;28;20020;-73
2023/08/20 06:06:45;;;;;;;26.48;12.52;;;;;;;22.40;100.00;101703.63;5098127;28;20035;-71
2023/08/20 06:09:10;;;;;;;29.70;13.23;;;;;;;22.40;100.00;101700.88;5099582;28;20088;-72
2023/08/20 06:11:36;;;;;;;26.23;12.75;;;;;;;22.44;100.00;101693.81;5097624;28;20111;-72
2023/08/20 06:14:02;;;;;;;21.80;11.95;;;;;;;22.38;100.00;101680.28;5099013;28;20091;-71
2023/08/20 06:16:27;;;;;;;34.00;13.02;;;;;;;22.39;100.00;101681.97;5097343;28;20135;-72
2023/08/20 06:18:53;;;;;;;27.50;12.73;;;;;;;22.42;100.00;101676.78;5098959;28;20060;-72
2023/08/20 06:21:18;;;;;;;30.92;13.27;;;;;;;22.50;100.00;101690.03;5097723;28;20475;-71
2023/08/20 06:23:44;;;;;;;26.35;12.93;;;;;;;22.48;100.00;101686.75;5085157;28;20024;-71
2023/08/20 06:26:09;;;;;;;33.00;14.63;;;;;;;22.50;100.00;101697.44;5100892;28;20024;-71
2023/08/20 06:28:34;;;;;;;35.47;14.40;;;;;;;22.54;100.00;101698.56;5101217;28;20093;-72
2023/08/20 06:31:00;;;;;;;28.02;13.82;;;;;;;22.41;100.00;101675.13;5100548;28;20030;-71
2023/08/20 06:33:25;;;;;;;33.83;14.25;;;;;;;22.46;100.00;101694.38;5101080;28;20055;-72
2023/08/20 06:35:50;;;;;;;28.27;14.13;;;;;;;22.41;100.00;101701.72;5082351;28;20035;-72
2023/08/20 06:38:16;;;;;;;35.72;14.18;;;;;;;22.36;100.00;101704.41;5064195;28;20032;-75
2023/08/20 06:40:41;;;;;;;50.33;16.88;;;;;;;22.43;100.00;101694.06;5097938;28;20494;-76
2023/08/20 06:43:07;;;;;;;32.33;14.15;;;;;;;22.44;100.00;101696.53;5100365;28;20032;-71
2023/08/20 06:45:32;;;;;;;37.55;14.80;;;;;;;22.42;100.00;101685.03;5082488;28;20105;-75
2023/08/20 06:47:57;;;;;;;30.58;14.30;;;;;;;22.54;100.00;101705.97;5097983;28;20040;-77
2023/08/20 06:50:23;;;;;;;36.95;14.52;;;;;;;22.37;100.00;101679.47;5097394;28;20322;-78
2023/08/20 06:52:48;;;;;;;32.55;13.60;;;;;;;22.54;100.00;101706.81;5095560;28;20043;-76
2023/08/20 06:55:14;;;;;;;26.13;12.85;;;;;;;22.45;100.00;101709.19;5093909;28;20082;-73
2023/08/20 06:57:39;;;;;;;33.17;13.70;;;;;;;22.35;100.00;101714.56;5100001;28;20054;-72
2023/08/20 07:00:05;;;;;;;30.15;13.07;;;;;;;22.42;100.00;101706.97;5098456;28;20483;-73
2023/08/20 07:02:31;;;;;;;26.27;12.52;;;;;;;22.51;100.00;101718.28;5098016;28;20050;-74
2023/08/20 07:04:56;;;;;;;27.85;11.85;;;;;;;22.45;100.00;101709.19;5096836;28;20036;-72
2023/08/20 07:07:23;;;;;;;31.63;12.60;;;;;;;22.45;100.00;101706.44;5096032;28;20026;-73
2023/08/20 07:09:48;;;;;;;22.63;11.18;;;;;;;22.22;100.00;101673.81;5081150;28;20110;-73
2023/08/20 07:12:14;;;;;;;23.38;11.52;;;;;;;22.46;100.00;101719.06;5100088;28;20100;-75
2023/08/20 07:14:39;;;;;;;20.83;10.93;;;;;;;22.44;100.00;101721.22;5080320;28;20035;-74
2023/08/20 07:17:05;;;;;;;29.13;11.88;;;;;;;22.35;100.00;101713.69;5095046;28;20119;-76
2023/08/20 07:19:30;;;;;;;30.60;11.52;;;;;;;22.41;100.00;101729.97;5079990;28;20028;-72
2023/08/20 07:21:56;;;;;;;38.38;12.10;;;;;;;22.26;100.00;101711.44;5080912;28;20097;-75
2023/08/20 07:24:25;;;;;;;26.65;10.50;;;;;;;22.37;100.00;101728.81;5097438;28;20028;-74
2023/08/20 07:26:59;;;;;;;24.83;10.63;;;;;;;22.39;100.00;101732.16;5095197;28;20053;-75
2023/08/20 07:29:26;;;;;;;39.72;11.85;;;;;;;22.37;100.00;101733.50;5098142;28;20044;-74
2023/08/20 07:31:52;;;;;;;46.50;12.07;;;;;;;22.41;100.00;101732.72;5100152;28;20036;-71
2023/08/20 07:34:17;;;;;;;43.30;12.05;;;;;;;22.42;100.00;101728.06;5097499;28;20030;-71
2023/08/20 07:36:42;;;;;;;31.15;11.02;;;;;;;22.44;100.00;101734.13;5097668;28;20038;-72
2023/08/20 07:39:08;;;;;;;30.63;11.80;;;;;;;22.52;100.00;101737.25;5096586;28;20598;-71
2023/08/20 07:41:34;;;;;;;46.80;12.02;;;;;;;22.49;100.00;101732.28;5096173;28;20032;-71
2023/08/20 07:43:59;;;;;;;27.40;11.07;;;;;;;22.45;100.00;101741.25;5095236;28;20028;-71
2023/08/20 07:46:25;;;;;;;26.42;10.73;;;;;;;22.41;100.00;101746.41;5095722;28;20036;-74
2023/08/20 07:48:50;;;;;;;28.10;12.98;;;;;;;22.28;100.00;101746.81;5096900;28;20028;-73
2023/08/20 07:51:16;;;;;;;34.90;14.57;;;;;;;22.09;100.00;101748.19;5096720;28;20589;-71
2023/08/20 07:53:41;;;;;;;33.95;14.43;;;;;;;21.93;100.00;101739.72;5079473;28;20494;-73
2023/08/20 07:56:06;;;;;;;41.03;16.73;;;;;;;21.79;100.00;101750.22;5089563;28;20103;-72
2023/08/20 07:58:32;;;;;;;40.92;16.17;;;;;;;21.73;100.00;101759.44;5085844;28;20043;-72
2023/08/20 08:00:58;;;;;;;33.47;15.45;;;;;;;21.66;100.00;101756.06;5092724;28;20360;-73
2023/08/20 08:03:26;;;;;;;38.85;15.65;;;;;;;21.61;100.00;101761.44;5095765;28;20024;-72
2023/08/20 08:05:51;;;;;;;35.78;15.32;;;;;;;21.61;100.00;101771.56;5094785;28;20024;-71
2023/08/20 08:08:17;;;;;;;35.17;15.55;;;;;;;21.66;100.00;101774.41;5077724;28;20050;-73
2023/08/20 08:10:44;;;;;;;30.50;14.55;;;;;;;21.63;100.00;101761.19;5078104;28;20040;-71
2023/08/20 08:13:15;;;;;;;42.78;15.13;;;;;;;21.66;100.00;101749.75;5096882;28;20024;-71
2023/08/20 08:15:41;;;;;;;35.45;15.48;;;;;;;21.74;100.00;101761.09;5095604;28;20035;-71
2023/08/20 08:18:07;;;;;;;29.08;13.90;;;;;;;21.73;100.00;101761.34;5097405;28;20072;-71
2023/08/20 08:20:33;;;;;;;29.17;11.13;;;;;;;21.72;100.00;101768.75;5096167;28;20050;-71
2023/08/20 08:22:59;;;;;;;22.73;10.00;;;;;;;21.65;100.00;101759.03;5096067;28;20027;-71
2023/08/20 08:25:24;;;;;;;22.65;9.13;;;;;;;21.75;100.00;101767.41;5097214;28;20725;-72
2023/08/20 08:27:50;;;;;;;27.10;10.77;;;;;;;21.87;100.00;101770.06;5077795;28;20107;-71
2023/08/20 08:30:15;;;;;;;26.85;9.40;;;;;;;21.84;100.00;101768.63;5077067;28;20032;-71
2023/08/20 08:32:41;;;;;;;23.45;9.30;;;;;;;21.91;100.00;101773.94;5061351;28;20028;-71
2023/08/20 08:35:07;;;;;;;23.13;9.48;;;;;;;21.99;100.00;101779.00;5096392;28;20110;-71
2023/08/20 08:37:33;;;;;;;19.40;9.13;;;;;;;22.00;100.00;101780.66;5102277;28;20044;-71
2023/08/20 08:39:59;;;;;;;28.85;9.20;;;;;;;22.15;100.00;101780.03;5109089;28;20028;-72
2023/08/20 08:42:24;;;;;;;26.67;9.57;;;;;;;22.15;100.00;101774.56;5102623;28;20421;-72
2023/08/20 08:44:50;;;;;;;21.40;8.50;;;;;;;22.15;100.00;101783.66;5095740;28;20042;-72
2023/08/20 08:47:21;;;;;;;25.83;8.10;;;;;;;22.16;100.00;101784.50;5097784;28;20032;-72
2023/08/20 08:49:48;;;;;;;21.33;8.00;;;;;;;22.16;100.00;101787.22;5101148;28;20069;-74
2023/08/20 08:52:13;;;;;;;24.95;8.38;;;;;;;22.07;100.00;101785.97;5101242;28;20119;-72
2023/08/20 08:54:39;;;;;;;25.48;7.95;;;;;;;22.09;100.00;101781.06;5082461;28;20051;-75
2023/08/20 08:57:05;;;;;;;22.02;6.95;;;;;;;22.20;100.00;101783.72;5097970;28;20024;-75
2023/08/20 08:59:31;;;;;;;20.80;7.22;;;;;;;22.22;100.00;101788.97;5088204;28;20020;-73
2023/08/20 09:01:57;;;;;;;24.25;7.90;;;;;;;22.14;100.00;101784.69;5053049;28;20476;-73
2023/08/20 09:04:23;;;;;;;22.33;7.88;;;;;;;22.12;100.00;101784.13;5076491;28;20016;-72
2023/08/20 09:06:56;;;;;;;22.63;7.32;;;;;;;22.31;100.00;101787.44;5071894;28;20027;-73
2023/08/20 09:09:22;;;;;;;20.17;6.90;;;;;;;22.36;100.00;101798.47;5074586;28;20066;-73
2023/08/20 09:11:48;;;;;;;23.90;7.05;;;;;;;22.24;100.00;101808.72;5076236;28;20032;-73
2023/08/20 09:14:27;;;;;;;28.23;6.45;;;;;;;22.22;100.00;101808.97;5075284;28;20046;-74
2023/08/20 09:17:00;;;;;;;23.33;7.90;;;;;;;22.16;100.00;101809.16;5079285;28;20024;-74
2023/08/20 09:19:34;;;;;;;20.52;6.82;;;;;;;22.26;100.00;101814.78;5093314;28;20051;-73
2023/08/20 09:22:00;;;;;;;22.77;7.25;;;;;;;22.18;100.00;101804.25;5094578;28;20039;-73
2023/08/20 09:24:45;;;;;;;23.20;7.47;;;;;;;22.22;100.00;101814.47;5094781;28;20023;-74
2023/08/20 09:27:13;;;;;;;24.08;8.50;;;;;;;22.18;100.00;101807.81;5094821;28;20030;-73
2023/08/20 09:29:54;;;;;;;26.63;8.43;;;;;;;22.26;100.00;101815.63;5103430;28;20054;-73
2023/08/20 09:32:22;;;;;;;25.73;8.80;;;;;;;22.21;100.00;101821.00;5093146;28;20035;-73
2023/08/20 09:34:52;;;;;;;23.92;8.65;;;;;;;22.21;100.00;101823.75;5094532;28;20035;-73
2023/08/20 09:37:19;;;;;;;21.45;7.95;;;;;;;22.28;100.00;101826.31;5096555;28;20031;-75
2023/08/20 09:39:45;;;;;;;18.70;8.48;;;;;;;22.34;100.00;101830.78;5094481;28;20491;-74
2023/08/20 09:42:12;;;;;;;19.13;8.52;;;;;;;22.36;100.00;101820.41;5095408;28;20040;-74
2023/08/20 09:44:39;;;;;;;23.63;8.38;;;;;;;22.43;100.00;101826.53;5094569;28;20023;-73
2023/08/20 09:47:12;;;;;;;21.17;8.05;;;;;;;22.22;100.00;101810.91;5077475;28;20032;-73
2023/08/20 09:49:43;;;;;;;21.85;8.45;;;;;;;22.32;100.00;101824.75;5095380;28;20016;-73
2023/08/20 09:52:10;;;;;;;23.85;8.48;;;;;;;22.41;100.00;101834.19;5095082;28;20032;-73
2023/08/20 09:55:07;;;;;;;23.92;9.00;;;;;;;22.46;100.00;101837.00;5091957;28;20028;-72
2023/08/20 09:57:38;;;;;;;23.75;7.80;;;;;;;22.45;100.00;101820.78;5095402;28;20024;-73
2023/08/20 10:00:09;;;;;;;16.92;7.40;;;;;;;22.51;100.00;101831.56;5100516;28;20094;-73
2023/08/20 10:02:35;;;;;;;20.10;7.03;;;;;;;22.59;100.00;101824.00;5096852;28;20031;-73
2023/08/20 10:05:03;;;;;;;22.35;6.80;;;;;;;22.81;100.00;101833.03;5098543;28;20034;-73
2023/08/20 10:07:32;;;;;;;25.23;6.88;;;;;;;22.78;100.00;101841.81;5100989;28;20035;-73
2023/08/20 10:10:01;;;;;;;17.67;6.65;;;;;;;22.77;100.00;101836.56;5100423;28;20095;-73
2023/08/20 10:12:28;;;;;;;23.45;7.10;;;;;;;22.73;100.00;101839.81;5100226;28;20457;-73
2023/08/20 10:14:55;;;;;;;15.65;5.82;;;;;;;22.88;100.00;101841.94;5099048;28;20085;-73
2023/08/20 10:17:22;;;;;;;22.35;6.50;;;;;;;22.93;100.00;101836.53;5100397;28;20027;-73
2023/08/20 10:19:48;;;;;;;17.17;6.30;;;;;;;22.75;100.00;101828.59;5098456;28;20150;-73
2023/08/20 10:22:13;;;;;;;15.40;5.45;;;;;;;22.60;100.00;101842.13;5098724;28;20055;-73
2023/08/20 10:24:49;;;;;;;22.55;6.40;;;;;;;22.64;100.00;101824.06;5102484;28;20008;-73
2023/08/20 10:27:28;;;;;;;21.50;6.45;;;;;;;22.48;100.00;101839.47;5111935;28;20105;-73
2023/08/20 10:29:54;;;;;;;22.65;6.55;;;;;;;22.27;100.00;101847.44;5102049;28;20016;-73
2023/08/20 10:32:40;;;;;;;17.63;5.68;;;;;;;22.32;100.00;101845.81;5098844;28;20024;-73
2023/08/20 10:35:06;;;;;;;18.58;5.97;;;;;;;22.26;100.00;101836.72;5103188;28;20024;-74
2023/08/20 10:37:32;;;;;;;20.23;6.20;;;;;;;22.10;100.00;101821.09;5102665;28;20024;-73
2023/08/20 10:39:58;;;;;;;20.35;5.88;;;;;;;22.07;100.00;101832.56;5109719;28;20047;-72
2023/08/20 10:42:28;;;;;;;20.33;6.20;;;;;;;22.21;100.00;101837.47;5099763;28;20035;-71
2023/08/20 10:45:00;;;;;;;17.30;5.75;;;;;;;22.27;100.00;101832.88;5100989;28;20063;-71
2023/08/20 10:47:43;;;;;;;16.42;6.15;;;;;;;22.26;100.00;101828.50;5100753;28;20016;-73
2023/08/20 10:50:10;;;;;;;21.95;6.35;;;;;;;22.14;100.00;101833.22;5100624;28;20186;-71
2023/08/20 10:52:50;;;;;;;19.63;6.00;;;;;;;22.16;100.00;101848.38;5097878;28;20040;-72
2023/08/20 10:55:21;;;;;;;23.48;6.93;;;;;;;22.19;100.00;101836.06;5097935;28;20150;-71
2023/08/20 10:57:55;;;;;;;21.85;5.63;;;;;;;22.20;100.00;101826.75;5098982;28;20036;-74
2023/08/20 11:00:20;;;;;;;18.73;6.20;;;;;;;22.29;100.00;101836.22;5100076;28;20516;-74
2023/08/20 11:02:46;;;;;;;22.23;6.65;;;;;;;22.32;100.00;101837.59;5102480;28;20091;-72
2023/08/20 11:05:21;;;;;;;23.55;7.15;;;;;;;22.23;100.00;101831.75;5085692;28;20057;-75
2023/08/20 11:07:47;;;;;;;19.23;6.38;;;;;;;22.16;100.00;101831.09;5085724;28;20024;-75